sensor_id;sensor_type;location;lat;lon;timestamp;P1;durP1;ratioP1;P2;durP2;ratioP2
49131;SDS011;35149;51.196;6.204;2022-12-08T00:01:41;13.40;;;11.07;;
49131;SDS011;35149;51.196;6.204;2022-12-08T00:04:14;15.57;;;11.13;;
49131;SDS011;35149;51.196;6.204;2022-12-08T00:06:43;16.40;;;11.07;;
49131;SDS011;35149;51.196;6.204;2022-12-08T00:09:35;13.63;;;11.40;;
49131;SDS011;35149;51.196;6.204;2022-12-08T00:12:10;14.70;;;11.02;;
49131;SDS011;35149;51.196;6.204;2022-12-08T00:14:43;16.15;;;12.32;;
49131;SDS011;35149;51.196;6.204;2022-12-08T00:17:14;18.80;;;12.52;;
49131;SDS011;35149;51.196;6.204;2022-12-08T00:19:44;14.88;;;12.13;;
49131;SDS011;35149;51.196;6.204;2022-12-08T00:22:21;19.13;;;13.98;;
49131;SDS011;35149;51.196;6.204;2022-12-08T00:24:47;19.60;;;14.57;;
49131;SDS011;35149;51.196;6.204;2022-12-08T00:27:16;23.50;;;15.68;;
49131;SDS011;35149;51.196;6.204;2022-12-08T00:29:48;21.25;;;15.82;;
49131;SDS011;35149;51.196;6.204;2022-12-08T00:32:15;23.38;;;16.27;;
49131;SDS011;35149;51.196;6.204;2022-12-08T00:34:42;23.52;;;16.88;;
49131;SDS011;35149;51.196;6.204;2022-12-08T00:37:11;20.90;;;16.13;;
49131;SDS011;35149;51.196;6.204;2022-12-08T00:39:40;22.10;;;16.45;;
49131;SDS011;35149;51.196;6.204;2022-12-08T00:42:11;21.58;;;16.17;;
49131;SDS011;35149;51.196;6.204;2022-12-08T00:44:42;23.95;;;17.17;;
49131;SDS011;35149;51.196;6.204;2022-12-08T00:47:10;22.27;;;16.77;;
49131;SDS011;35149;51.196;6.204;2022-12-08T00:49:37;25.17;;;17.48;;
49131;SDS011;35149;51.196;6.204;2022-12-08T00:52:07;25.77;;;17.73;;
49131;SDS011;35149;51.196;6.204;2022-12-08T00:54:34;24.10;;;17.63;;
49131;SDS011;35149;51.196;6.204;2022-12-08T00:57:01;24.55;;;17.77;;
49131;SDS011;35149;51.196;6.204;2022-12-08T00:59:28;23.70;;;18.35;;
49131;SDS011;35149;51.196;6.204;2022-12-08T01:01:55;23.83;;;16.80;;
49131;SDS011;35149;51.196;6.204;2022-12-08T01:04:26;23.55;;;16.77;;
49131;SDS011;35149;51.196;6.204;2022-12-08T01:06:53;21.15;;;16.80;;
49131;SDS011;35149;51.196;6.204;2022-12-08T01:09:22;21.13;;;15.90;;
49131;SDS011;35149;51.196;6.204;2022-12-08T01:11:49;23.27;;;17.48;;
49131;SDS011;35149;51.196;6.204;2022-12-08T01:14:15;22.00;;;16.85;;
49131;SDS011;35149;51.196;6.204;2022-12-08T01:16:47;19.65;;;16.05;;
49131;SDS011;35149;51.196;6.204;2022-12-08T01:19:14;22.00;;;16.27;;
49131;SDS011;35149;51.196;6.204;2022-12-08T01:21:42;20.98;;;16.10;;
49131;SDS011;35149;51.196;6.204;2022-12-08T01:24:10;20.95;;;15.05;;
49131;SDS011;35149;51.196;6.204;2022-12-08T01:26:39;20.13;;;15.48;;
49131;SDS011;35149;51.196;6.204;2022-12-08T01:29:09;21.25;;;15.27;;
49131;SDS011;35149;51.196;6.204;2022-12-08T01:31:38;19.67;;;14.90;;
49131;SDS011;35149;51.196;6.204;2022-12-08T01:34:09;19.50;;;15.20;;
49131;SDS011;35149;51.196;6.204;2022-12-08T01:36:40;16.95;;;14.30;;
49131;SDS011;35149;51.196;6.204;2022-12-08T01:39:13;20.52;;;15.02;;
49131;SDS011;35149;51.196;6.204;2022-12-08T01:41:41;19.95;;;14.35;;
49131;SDS011;35149;51.196;6.204;2022-12-08T01:46:43;21.42;;;14.50;;
49131;SDS011;35149;51.196;6.204;2022-12-08T01:49:13;22.73;;;16.50;;
49131;SDS011;35149;51.196;6.204;2022-12-08T01:54:30;20.30;;;16.20;;
49131;SDS011;35149;51.196;6.204;2022-12-08T01:57:01;21.63;;;17.27;;
49131;SDS011;35149;51.196;6.204;2022-12-08T01:59:37;19.88;;;15.63;;
49131;SDS011;35149;51.196;6.204;2022-12-08T02:02:12;23.33;;;15.68;;
49131;SDS011;35149;51.196;6.204;2022-12-08T02:04:40;25.67;;;17.35;;
49131;SDS011;35149;51.196;6.204;2022-12-08T02:07:09;27.20;;;18.52;;
49131;SDS011;35149;51.196;6.204;2022-12-08T02:09:41;22.05;;;17.27;;
49131;SDS011;35149;51.196;6.204;2022-12-08T02:12:09;23.05;;;17.80;;
49131;SDS011;35149;51.196;6.204;2022-12-08T02:14:39;22.15;;;18.70;;
49131;SDS011;35149;51.196;6.204;2022-12-08T02:20:29;19.08;;;15.20;;
49131;SDS011;35149;51.196;6.204;2022-12-08T02:41:37;19.08;;;14.32;;
49131;SDS011;35149;51.196;6.204;2022-12-08T02:44:21;16.65;;;13.15;;
49131;SDS011;35149;51.196;6.204;2022-12-08T02:47:04;18.08;;;12.70;;
49131;SDS011;35149;51.196;6.204;2022-12-08T02:49:42;13.25;;;10.90;;
49131;SDS011;35149;51.196;6.204;2022-12-08T02:54:45;12.77;;;10.45;;
49131;SDS011;35149;51.196;6.204;2022-12-08T03:00:08;14.32;;;10.45;;
49131;SDS011;35149;51.196;6.204;2022-12-08T03:05:21;16.75;;;9.93;;
49131;SDS011;35149;51.196;6.204;2022-12-08T03:08:08;15.13;;;10.45;;
49131;SDS011;35149;51.196;6.204;2022-12-08T03:10:49;12.20;;;9.93;;
49131;SDS011;35149;51.196;6.204;2022-12-08T03:13:32;13.48;;;9.35;;
49131;SDS011;35149;51.196;6.204;2022-12-08T03:16:08;13.68;;;10.02;;
49131;SDS011;35149;51.196;6.204;2022-12-08T03:18:38;10.88;;;9.50;;
49131;SDS011;35149;51.196;6.204;2022-12-08T03:21:10;12.00;;;9.57;;
49131;SDS011;35149;51.196;6.204;2022-12-08T03:23:39;13.20;;;10.13;;
49131;SDS011;35149;51.196;6.204;2022-12-08T03:26:11;11.57;;;9.32;;
49131;SDS011;35149;51.196;6.204;2022-12-08T03:28:48;13.43;;;10.60;;
49131;SDS011;35149;51.196;6.204;2022-12-08T03:31:15;14.38;;;11.05;;
49131;SDS011;35149;51.196;6.204;2022-12-08T03:33:44;15.30;;;11.13;;
49131;SDS011;35149;51.196;6.204;2022-12-08T03:36:19;14.82;;;11.68;;
49131;SDS011;35149;51.196;6.204;2022-12-08T03:38:48;16.25;;;13.20;;
49131;SDS011;35149;51.196;6.204;2022-12-08T03:41:19;18.45;;;14.18;;
49131;SDS011;35149;51.196;6.204;2022-12-08T03:43:47;16.55;;;12.88;;
49131;SDS011;35149;51.196;6.204;2022-12-08T03:46:19;15.73;;;12.25;;
49131;SDS011;35149;51.196;6.204;2022-12-08T03:48:46;16.30;;;12.20;;
49131;SDS011;35149;51.196;6.204;2022-12-08T03:51:13;13.15;;;11.13;;
49131;SDS011;35149;51.196;6.204;2022-12-08T03:53:41;16.33;;;12.10;;
49131;SDS011;35149;51.196;6.204;2022-12-08T03:56:15;12.60;;;10.05;;
49131;SDS011;35149;51.196;6.204;2022-12-08T03:58:42;14.30;;;10.50;;
49131;SDS011;35149;51.196;6.204;2022-12-08T04:01:09;13.02;;;10.05;;
49131;SDS011;35149;51.196;6.204;2022-12-08T04:03:37;13.43;;;10.13;;
49131;SDS011;35149;51.196;6.204;2022-12-08T04:06:04;11.85;;;9.13;;
49131;SDS011;35149;51.196;6.204;2022-12-08T04:08:34;12.10;;;9.45;;
49131;SDS011;35149;51.196;6.204;2022-12-08T04:11:01;12.43;;;10.00;;
49131;SDS011;35149;51.196;6.204;2022-12-08T04:13:27;12.35;;;9.00;;
49131;SDS011;35149;51.196;6.204;2022-12-08T04:15:54;12.25;;;9.32;;
49131;SDS011;35149;51.196;6.204;2022-12-08T04:18:22;12.75;;;10.40;;
49131;SDS011;35149;51.196;6.204;2022-12-08T04:20:49;12.85;;;9.60;;
49131;SDS011;35149;51.196;6.204;2022-12-08T04:23:18;11.80;;;9.68;;
49131;SDS011;35149;51.196;6.204;2022-12-08T04:25:45;11.57;;;9.73;;
49131;SDS011;35149;51.196;6.204;2022-12-08T04:28:11;14.23;;;10.90;;
49131;SDS011;35149;51.196;6.204;2022-12-08T04:30:38;14.77;;;10.82;;
49131;SDS011;35149;51.196;6.204;2022-12-08T04:33:06;17.50;;;12.07;;
49131;SDS011;35149;51.196;6.204;2022-12-08T04:35:32;18.85;;;14.35;;
49131;SDS011;35149;51.196;6.204;2022-12-08T04:37:59;19.08;;;13.68;;
49131;SDS011;35149;51.196;6.204;2022-12-08T04:40:26;19.98;;;13.73;;
49131;SDS011;35149;51.196;6.204;2022-12-08T04:42:52;22.58;;;15.93;;
49131;SDS011;35149;51.196;6.204;2022-12-08T04:45:19;21.73;;;16.00;;
49131;SDS011;35149;51.196;6.204;2022-12-08T04:47:46;25.15;;;17.10;;
49131;SDS011;35149;51.196;6.204;2022-12-08T04:50:14;23.48;;;16.50;;
49131;SDS011;35149;51.196;6.204;2022-12-08T04:52:44;22.42;;;16.83;;
49131;SDS011;35149;51.196;6.204;2022-12-08T04:55:12;25.23;;;16.67;;
49131;SDS011;35149;51.196;6.204;2022-12-08T04:57:41;23.10;;;16.95;;
49131;SDS011;35149;51.196;6.204;2022-12-08T05:00:10;28.67;;;17.85;;
49131;SDS011;35149;51.196;6.204;2022-12-08T05:02:41;25.50;;;19.70;;
49131;SDS011;35149;51.196;6.204;2022-12-08T05:05:12;24.88;;;19.23;;
49131;SDS011;35149;51.196;6.204;2022-12-08T05:07:39;30.30;;;21.13;;
49131;SDS011;35149;51.196;6.204;2022-12-08T05:10:07;31.45;;;20.50;;
49131;SDS011;35149;51.196;6.204;2022-12-08T05:12:36;28.30;;;21.70;;
49131;SDS011;35149;51.196;6.204;2022-12-08T05:15:03;28.70;;;21.25;;
49131;SDS011;35149;51.196;6.204;2022-12-08T05:17:30;32.95;;;23.67;;
49131;SDS011;35149;51.196;6.204;2022-12-08T05:19:56;33.67;;;23.85;;
49131;SDS011;35149;51.196;6.204;2022-12-08T05:22:23;28.85;;;21.80;;
49131;SDS011;35149;51.196;6.204;2022-12-08T05:24:49;31.00;;;22.70;;
49131;SDS011;35149;51.196;6.204;2022-12-08T05:27:18;23.85;;;18.88;;
49131;SDS011;35149;51.196;6.204;2022-12-08T05:29:45;29.02;;;18.95;;
49131;SDS011;35149;51.196;6.204;2022-12-08T05:32:13;24.42;;;18.88;;
49131;SDS011;35149;51.196;6.204;2022-12-08T05:34:39;25.88;;;19.55;;
49131;SDS011;35149;51.196;6.204;2022-12-08T05:37:06;27.27;;;21.10;;
49131;SDS011;35149;51.196;6.204;2022-12-08T05:39:33;29.80;;;21.17;;
49131;SDS011;35149;51.196;6.204;2022-12-08T05:41:59;28.77;;;21.45;;
49131;SDS011;35149;51.196;6.204;2022-12-08T05:44:26;30.38;;;21.67;;
49131;SDS011;35149;51.196;6.204;2022-12-08T05:46:53;28.17;;;21.17;;
49131;SDS011;35149;51.196;6.204;2022-12-08T05:49:20;26.98;;;19.85;;
49131;SDS011;35149;51.196;6.204;2022-12-08T05:51:46;30.98;;;21.52;;
49131;SDS011;35149;51.196;6.204;2022-12-08T05:54:13;29.92;;;22.75;;
49131;SDS011;35149;51.196;6.204;2022-12-08T05:56:40;29.80;;;22.13;;
49131;SDS011;35149;51.196;6.204;2022-12-08T05:59:06;30.23;;;22.02;;
49131;SDS011;35149;51.196;6.204;2022-12-08T06:01:33;28.95;;;21.05;;
49131;SDS011;35149;51.196;6.204;2022-12-08T06:04:01;31.95;;;22.70;;
49131;SDS011;35149;51.196;6.204;2022-12-08T06:06:29;29.92;;;22.38;;
49131;SDS011;35149;51.196;6.204;2022-12-08T06:08:56;30.98;;;21.35;;
49131;SDS011;35149;51.196;6.204;2022-12-08T06:11:27;31.60;;;21.73;;
49131;SDS011;35149;51.196;6.204;2022-12-08T06:13:55;32.05;;;22.45;;
49131;SDS011;35149;51.196;6.204;2022-12-08T06:16:26;30.60;;;21.65;;
49131;SDS011;35149;51.196;6.204;2022-12-08T06:18:53;29.33;;;20.48;;
49131;SDS011;35149;51.196;6.204;2022-12-08T06:21:21;31.02;;;19.85;;
49131;SDS011;35149;51.196;6.204;2022-12-08T06:23:48;28.73;;;19.75;;
49131;SDS011;35149;51.196;6.204;2022-12-08T06:26:19;25.73;;;19.43;;
49131;SDS011;35149;51.196;6.204;2022-12-08T06:28:47;25.38;;;19.35;;
49131;SDS011;35149;51.196;6.204;2022-12-08T06:31:18;24.65;;;18.00;;
49131;SDS011;35149;51.196;6.204;2022-12-08T06:33:47;28.83;;;20.13;;
49131;SDS011;35149;51.196;6.204;2022-12-08T06:36:15;30.92;;;20.20;;
49131;SDS011;35149;51.196;6.204;2022-12-08T06:38:44;32.17;;;22.10;;
49131;SDS011;35149;51.196;6.204;2022-12-08T06:41:11;26.95;;;20.05;;
49131;SDS011;35149;51.196;6.204;2022-12-08T06:43:38;25.13;;;18.60;;
49131;SDS011;35149;51.196;6.204;2022-12-08T06:46:07;26.45;;;19.65;;
49131;SDS011;35149;51.196;6.204;2022-12-08T06:48:35;27.50;;;18.73;;
49131;SDS011;35149;51.196;6.204;2022-12-08T06:51:06;22.23;;;16.73;;
49131;SDS011;35149;51.196;6.204;2022-12-08T06:53:37;21.38;;;14.45;;
49131;SDS011;35149;51.196;6.204;2022-12-08T06:56:13;23.42;;;17.65;;
49131;SDS011;35149;51.196;6.204;2022-12-08T06:58:41;31.00;;;20.13;;
49131;SDS011;35149;51.196;6.204;2022-12-08T07:01:15;25.65;;;19.23;;
49131;SDS011;35149;51.196;6.204;2022-12-08T07:03:42;25.70;;;17.88;;
49131;SDS011;35149;51.196;6.204;2022-12-08T07:06:13;23.42;;;17.63;;
49131;SDS011;35149;51.196;6.204;2022-12-08T07:08:43;23.10;;;17.85;;
49131;SDS011;35149;51.196;6.204;2022-12-08T07:11:10;22.33;;;16.90;;
49131;SDS011;35149;51.196;6.204;2022-12-08T07:13:46;21.35;;;15.50;;
49131;SDS011;35149;51.196;6.204;2022-12-08T07:16:15;22.92;;;16.55;;
49131;SDS011;35149;51.196;6.204;2022-12-08T07:18:42;23.67;;;15.70;;
49131;SDS011;35149;51.196;6.204;2022-12-08T07:21:16;19.13;;;14.15;;
49131;SDS011;35149;51.196;6.204;2022-12-08T07:23:46;22.58;;;15.15;;
49131;SDS011;35149;51.196;6.204;2022-12-08T07:26:23;24.77;;;17.10;;
49131;SDS011;35149;51.196;6.204;2022-12-08T07:28:50;22.45;;;16.92;;
49131;SDS011;35149;51.196;6.204;2022-12-08T07:31:17;24.15;;;16.88;;
49131;SDS011;35149;51.196;6.204;2022-12-08T07:33:49;24.45;;;16.90;;
49131;SDS011;35149;51.196;6.204;2022-12-08T07:36:22;26.30;;;17.40;;
49131;SDS011;35149;51.196;6.204;2022-12-08T07:38:53;26.55;;;18.17;;
49131;SDS011;35149;51.196;6.204;2022-12-08T07:41:23;25.63;;;17.10;;
49131;SDS011;35149;51.196;6.204;2022-12-08T07:43:51;26.23;;;18.15;;
49131;SDS011;35149;51.196;6.204;2022-12-08T07:46:19;25.17;;;17.58;;
49131;SDS011;35149;51.196;6.204;2022-12-08T07:48:47;26.15;;;17.73;;
49131;SDS011;35149;51.196;6.204;2022-12-08T07:51:14;26.65;;;18.33;;
49131;SDS011;35149;51.196;6.204;2022-12-08T07:53:44;25.60;;;17.15;;
49131;SDS011;35149;51.196;6.204;2022-12-08T07:56:19;24.65;;;17.13;;
49131;SDS011;35149;51.196;6.204;2022-12-08T07:58:49;24.63;;;17.08;;
49131;SDS011;35149;51.196;6.204;2022-12-08T08:01:26;24.65;;;16.85;;
49131;SDS011;35149;51.196;6.204;2022-12-08T08:04:02;23.73;;;16.40;;
49131;SDS011;35149;51.196;6.204;2022-12-08T08:06:30;23.42;;;17.02;;
49131;SDS011;35149;51.196;6.204;2022-12-08T08:08:58;25.85;;;16.55;;
49131;SDS011;35149;51.196;6.204;2022-12-08T08:11:25;22.67;;;16.25;;
49131;SDS011;35149;51.196;6.204;2022-12-08T08:13:51;25.65;;;16.65;;
49131;SDS011;35149;51.196;6.204;2022-12-08T08:16:18;22.63;;;15.65;;
49131;SDS011;35149;51.196;6.204;2022-12-08T08:18:49;21.70;;;14.85;;
49131;SDS011;35149;51.196;6.204;2022-12-08T08:21:16;22.98;;;14.10;;
49131;SDS011;35149;51.196;6.204;2022-12-08T08:24:04;20.13;;;13.23;;
49131;SDS011;35149;51.196;6.204;2022-12-08T08:26:35;22.13;;;14.75;;
49131;SDS011;35149;51.196;6.204;2022-12-08T08:29:02;20.25;;;13.43;;
49131;SDS011;35149;51.196;6.204;2022-12-08T08:31:30;20.92;;;14.32;;
49131;SDS011;35149;51.196;6.204;2022-12-08T08:33:57;20.35;;;13.02;;
49131;SDS011;35149;51.196;6.204;2022-12-08T08:36:25;19.33;;;13.65;;
49131;SDS011;35149;51.196;6.204;2022-12-08T08:38:52;19.90;;;13.07;;
49131;SDS011;35149;51.196;6.204;2022-12-08T08:41:18;19.60;;;12.98;;
49131;SDS011;35149;51.196;6.204;2022-12-08T08:43:45;16.45;;;12.90;;
49131;SDS011;35149;51.196;6.204;2022-12-08T08:46:11;17.50;;;12.20;;
49131;SDS011;35149;51.196;6.204;2022-12-08T08:48:38;19.73;;;13.30;;
49131;SDS011;35149;51.196;6.204;2022-12-08T08:51:08;17.15;;;12.52;;
49131;SDS011;35149;51.196;6.204;2022-12-08T08:53:36;16.33;;;12.25;;
49131;SDS011;35149;51.196;6.204;2022-12-08T08:56:12;18.73;;;12.98;;
49131;SDS011;35149;51.196;6.204;2022-12-08T08:58:41;16.27;;;11.35;;
49131;SDS011;35149;51.196;6.204;2022-12-08T09:01:08;21.20;;;13.02;;
49131;SDS011;35149;51.196;6.204;2022-12-08T09:03:50;18.20;;;12.73;;
49131;SDS011;35149;51.196;6.204;2022-12-08T09:06:18;18.73;;;13.10;;
49131;SDS011;35149;51.196;6.204;2022-12-08T09:08:49;20.17;;;12.35;;
49131;SDS011;35149;51.196;6.204;2022-12-08T09:11:16;17.25;;;10.70;;
49131;SDS011;35149;51.196;6.204;2022-12-08T09:13:46;16.05;;;11.52;;
49131;SDS011;35149;51.196;6.204;2022-12-08T09:16:14;19.75;;;12.15;;
49131;SDS011;35149;51.196;6.204;2022-12-08T09:18:41;16.55;;;12.13;;
49131;SDS011;35149;51.196;6.204;2022-12-08T09:21:09;16.23;;;11.05;;
49131;SDS011;35149;51.196;6.204;2022-12-08T09:23:40;16.38;;;11.40;;
49131;SDS011;35149;51.196;6.204;2022-12-08T09:26:07;16.80;;;11.90;;
49131;SDS011;35149;51.196;6.204;2022-12-08T09:28:34;16.35;;;10.70;;
49131;SDS011;35149;51.196;6.204;2022-12-08T09:31:01;15.20;;;11.07;;
49131;SDS011;35149;51.196;6.204;2022-12-08T09:33:28;15.82;;;11.52;;
49131;SDS011;35149;51.196;6.204;2022-12-08T09:35:55;17.55;;;11.65;;
49131;SDS011;35149;51.196;6.204;2022-12-08T09:38:26;16.90;;;11.73;;
49131;SDS011;35149;51.196;6.204;2022-12-08T09:40:52;14.43;;;10.57;;
49131;SDS011;35149;51.196;6.204;2022-12-08T09:43:27;16.70;;;12.20;;
49131;SDS011;35149;51.196;6.204;2022-12-08T09:46:06;17.88;;;12.02;;
49131;SDS011;35149;51.196;6.204;2022-12-08T09:48:37;17.67;;;12.25;;
49131;SDS011;35149;51.196;6.204;2022-12-08T09:51:12;17.75;;;11.57;;
49131;SDS011;35149;51.196;6.204;2022-12-08T09:53:41;16.15;;;11.18;;
49131;SDS011;35149;51.196;6.204;2022-12-08T09:56:29;19.25;;;12.73;;
49131;SDS011;35149;51.196;6.204;2022-12-08T10:01:56;16.88;;;10.77;;
49131;SDS011;35149;51.196;6.204;2022-12-08T10:04:31;18.60;;;11.25;;
49131;SDS011;35149;51.196;6.204;2022-12-08T10:07:04;14.88;;;11.15;;
49131;SDS011;35149;51.196;6.204;2022-12-08T10:10:03;16.33;;;11.07;;
49131;SDS011;35149;51.196;6.204;2022-12-08T10:18:42;15.88;;;11.18;;
49131;SDS011;35149;51.196;6.204;2022-12-08T10:21:17;20.00;;;11.55;;
49131;SDS011;35149;51.196;6.204;2022-12-08T10:23:49;17.77;;;11.15;;
49131;SDS011;35149;51.196;6.204;2022-12-08T10:26:22;21.25;;;12.32;;
49131;SDS011;35149;51.196;6.204;2022-12-08T10:28:52;18.83;;;11.70;;
49131;SDS011;35149;51.196;6.204;2022-12-08T10:31:24;15.35;;;11.10;;
49131;SDS011;35149;51.196;6.204;2022-12-08T10:33:52;20.55;;;12.98;;
49131;SDS011;35149;51.196;6.204;2022-12-08T10:39:37;16.40;;;11.02;;
49131;SDS011;35149;51.196;6.204;2022-12-08T10:44:49;16.70;;;11.90;;
49131;SDS011;35149;51.196;6.204;2022-12-08T10:47:19;20.50;;;11.98;;
49131;SDS011;35149;51.196;6.204;2022-12-08T10:50:07;17.42;;;11.93;;
49131;SDS011;35149;51.196;6.204;2022-12-08T10:52:57;17.60;;;10.93;;
49131;SDS011;35149;51.196;6.204;2022-12-08T11:01:09;15.90;;;10.20;;
49131;SDS011;35149;51.196;6.204;2022-12-08T11:03:50;14.32;;;9.60;;
49131;SDS011;35149;51.196;6.204;2022-12-08T11:08:59;16.35;;;9.93;;
49131;SDS011;35149;51.196;6.204;2022-12-08T11:11:43;13.18;;;10.30;;
49131;SDS011;35149;51.196;6.204;2022-12-08T11:14:22;15.38;;;9.90;;
49131;SDS011;35149;51.196;6.204;2022-12-08T11:17:00;15.40;;;10.45;;
49131;SDS011;35149;51.196;6.204;2022-12-08T11:19:44;15.30;;;9.75;;
49131;SDS011;35149;51.196;6.204;2022-12-08T11:22:20;12.43;;;9.65;;
49131;SDS011;35149;51.196;6.204;2022-12-08T11:27:33;13.52;;;9.55;;
49131;SDS011;35149;51.196;6.204;2022-12-08T11:30:02;11.13;;;8.48;;
49131;SDS011;35149;51.196;6.204;2022-12-08T11:32:41;13.40;;;9.27;;
49131;SDS011;35149;51.196;6.204;2022-12-08T11:35:19;13.32;;;9.73;;
49131;SDS011;35149;51.196;6.204;2022-12-08T11:37:57;14.10;;;8.77;;
49131;SDS011;35149;51.196;6.204;2022-12-08T11:40:47;13.68;;;8.38;;
49131;SDS011;35149;51.196;6.204;2022-12-08T11:45:56;14.68;;;8.35;;
49131;SDS011;35149;51.196;6.204;2022-12-08T11:51:15;12.02;;;8.45;;
49131;SDS011;35149;51.196;6.204;2022-12-08T11:54:04;14.00;;;8.05;;
49131;SDS011;35149;51.196;6.204;2022-12-08T11:56:41;11.25;;;7.13;;
49131;SDS011;35149;51.196;6.204;2022-12-08T11:59:23;11.63;;;8.35;;
49131;SDS011;35149;51.196;6.204;2022-12-08T12:01:57;13.20;;;8.75;;
49131;SDS011;35149;51.196;6.204;2022-12-08T12:04:32;10.32;;;7.93;;
49131;SDS011;35149;51.196;6.204;2022-12-08T12:15:50;11.27;;;7.68;;
49131;SDS011;35149;51.196;6.204;2022-12-08T12:21:18;10.40;;;7.35;;
49131;SDS011;35149;51.196;6.204;2022-12-08T12:23:57;11.07;;;7.65;;
49131;SDS011;35149;51.196;6.204;2022-12-08T12:26:50;12.45;;;7.03;;
49131;SDS011;35149;51.196;6.204;2022-12-08T12:29:30;9.45;;;7.20;;
49131;SDS011;35149;51.196;6.204;2022-12-08T12:32:05;10.25;;;6.70;;
49131;SDS011;35149;51.196;6.204;2022-12-08T12:34:42;11.45;;;8.25;;
49131;SDS011;35149;51.196;6.204;2022-12-08T12:37:37;10.60;;;7.30;;
49131;SDS011;35149;51.196;6.204;2022-12-08T12:48:20;12.68;;;6.47;;
49131;SDS011;35149;51.196;6.204;2022-12-08T12:50:51;11.77;;;7.57;;
49131;SDS011;35149;51.196;6.204;2022-12-08T12:55:53;9.60;;;7.10;;
49131;SDS011;35149;51.196;6.204;2022-12-08T13:03:41;9.02;;;7.47;;
49131;SDS011;35149;51.196;6.204;2022-12-08T13:06:11;10.55;;;7.25;;
49131;SDS011;35149;51.196;6.204;2022-12-08T13:08:48;12.23;;;7.43;;
49131;SDS011;35149;51.196;6.204;2022-12-08T13:11:19;8.60;;;7.22;;
49131;SDS011;35149;51.196;6.204;2022-12-08T13:16:25;9.48;;;6.63;;
49131;SDS011;35149;51.196;6.204;2022-12-08T13:18:57;10.97;;;6.87;;
49131;SDS011;35149;51.196;6.204;2022-12-08T13:21:31;8.90;;;6.97;;
49131;SDS011;35149;51.196;6.204;2022-12-08T13:26:48;12.35;;;7.93;;
49131;SDS011;35149;51.196;6.204;2022-12-08T13:29:38;10.68;;;7.22;;
49131;SDS011;35149;51.196;6.204;2022-12-08T13:34:40;12.52;;;9.15;;
49131;SDS011;35149;51.196;6.204;2022-12-08T13:42:46;13.15;;;8.55;;
49131;SDS011;35149;51.196;6.204;2022-12-08T13:45:24;11.00;;;8.43;;
49131;SDS011;35149;51.196;6.204;2022-12-08T13:48:23;14.90;;;8.75;;
49131;SDS011;35149;51.196;6.204;2022-12-08T13:51:24;13.05;;;7.97;;
49131;SDS011;35149;51.196;6.204;2022-12-08T13:54:21;11.25;;;8.52;;
49131;SDS011;35149;51.196;6.204;2022-12-08T13:57:28;10.30;;;8.55;;
49131;SDS011;35149;51.196;6.204;2022-12-08T14:00:01;14.52;;;8.90;;
49131;SDS011;35149;51.196;6.204;2022-12-08T14:02:45;11.18;;;8.75;;
49131;SDS011;35149;51.196;6.204;2022-12-08T14:05:16;12.52;;;8.32;;
49131;SDS011;35149;51.196;6.204;2022-12-08T14:08:16;12.45;;;8.50;;
49131;SDS011;35149;51.196;6.204;2022-12-08T14:11:28;10.18;;;7.80;;
49131;SDS011;35149;51.196;6.204;2022-12-08T14:17:11;9.52;;;7.90;;
49131;SDS011;35149;51.196;6.204;2022-12-08T14:19:41;10.15;;;8.02;;
49131;SDS011;35149;51.196;6.204;2022-12-08T14:22:14;9.17;;;8.03;;
49131;SDS011;35149;51.196;6.204;2022-12-08T14:24:46;10.25;;;7.68;;
49131;SDS011;35149;51.196;6.204;2022-12-08T14:27:22;10.13;;;7.45;;
49131;SDS011;35149;51.196;6.204;2022-12-08T14:29:52;11.18;;;7.75;;
49131;SDS011;35149;51.196;6.204;2022-12-08T14:34:54;9.73;;;7.68;;
49131;SDS011;35149;51.196;6.204;2022-12-08T14:37:36;10.65;;;8.15;;
49131;SDS011;35149;51.196;6.204;2022-12-08T14:45:33;10.57;;;7.93;;
49131;SDS011;35149;51.196;6.204;2022-12-08T14:54:10;11.80;;;9.32;;
49131;SDS011;35149;51.196;6.204;2022-12-08T14:56:47;15.05;;;10.23;;
49131;SDS011;35149;51.196;6.204;2022-12-08T14:59:21;17.13;;;13.35;;
49131;SDS011;35149;51.196;6.204;2022-12-08T15:04:43;14.52;;;9.40;;
49131;SDS011;35149;51.196;6.204;2022-12-08T15:07:20;10.52;;;8.95;;
49131;SDS011;35149;51.196;6.204;2022-12-08T15:10:34;10.70;;;9.43;;
49131;SDS011;35149;51.196;6.204;2022-12-08T15:12:39;14.30;;;10.23;;
49131;SDS011;35149;51.196;6.204;2022-12-08T15:20:25;10.88;;;9.55;;
49131;SDS011;35149;51.196;6.204;2022-12-08T15:23:00;13.55;;;10.50;;
49131;SDS011;35149;51.196;6.204;2022-12-08T15:25:30;17.20;;;11.48;;
49131;SDS011;35149;51.196;6.204;2022-12-08T15:27:57;17.42;;;11.10;;
49131;SDS011;35149;51.196;6.204;2022-12-08T15:30:26;14.35;;;10.48;;
49131;SDS011;35149;51.196;6.204;2022-12-08T15:32:56;13.85;;;10.18;;
49131;SDS011;35149;51.196;6.204;2022-12-08T15:35:24;14.95;;;9.77;;
49131;SDS011;35149;51.196;6.204;2022-12-08T15:37:54;13.73;;;10.73;;
49131;SDS011;35149;51.196;6.204;2022-12-08T15:40:21;13.75;;;9.68;;
49131;SDS011;35149;51.196;6.204;2022-12-08T15:42:53;15.15;;;10.45;;
49131;SDS011;35149;51.196;6.204;2022-12-08T15:45:23;14.65;;;9.93;;
49131;SDS011;35149;51.196;6.204;2022-12-08T15:47:57;13.55;;;10.77;;
49131;SDS011;35149;51.196;6.204;2022-12-08T15:50:24;15.18;;;10.57;;
49131;SDS011;35149;51.196;6.204;2022-12-08T15:52:51;19.20;;;10.55;;
49131;SDS011;35149;51.196;6.204;2022-12-08T15:55:18;14.07;;;9.70;;
49131;SDS011;35149;51.196;6.204;2022-12-08T15:57:50;14.63;;;9.50;;
49131;SDS011;35149;51.196;6.204;2022-12-08T16:00:43;14.43;;;9.88;;
49131;SDS011;35149;51.196;6.204;2022-12-08T16:03:23;15.25;;;11.30;;
49131;SDS011;35149;51.196;6.204;2022-12-08T16:06:19;14.43;;;9.82;;
49131;SDS011;35149;51.196;6.204;2022-12-08T16:09:13;12.93;;;9.43;;
49131;SDS011;35149;51.196;6.204;2022-12-08T16:11:47;14.05;;;10.95;;
49131;SDS011;35149;51.196;6.204;2022-12-08T16:14:35;13.25;;;10.30;;
49131;SDS011;35149;51.196;6.204;2022-12-08T16:17:25;14.75;;;9.98;;
49131;SDS011;35149;51.196;6.204;2022-12-08T16:20:01;14.38;;;10.43;;
49131;SDS011;35149;51.196;6.204;2022-12-08T16:22:33;13.65;;;9.65;;
49131;SDS011;35149;51.196;6.204;2022-12-08T16:25:23;13.18;;;8.88;;
49131;SDS011;35149;51.196;6.204;2022-12-08T16:28:16;13.00;;;9.27;;
49131;SDS011;35149;51.196;6.204;2022-12-08T16:31:05;13.07;;;8.52;;
49131;SDS011;35149;51.196;6.204;2022-12-08T16:33:41;13.52;;;9.38;;
49131;SDS011;35149;51.196;6.204;2022-12-08T16:36:09;14.70;;;9.20;;
49131;SDS011;35149;51.196;6.204;2022-12-08T16:38:36;12.00;;;9.63;;
49131;SDS011;35149;51.196;6.204;2022-12-08T16:41:05;16.80;;;9.07;;
49131;SDS011;35149;51.196;6.204;2022-12-08T16:43:55;16.95;;;9.70;;
49131;SDS011;35149;51.196;6.204;2022-12-08T16:46:28;12.85;;;9.15;;
49131;SDS011;35149;51.196;6.204;2022-12-08T16:48:55;13.10;;;9.40;;
49131;SDS011;35149;51.196;6.204;2022-12-08T16:51:24;13.82;;;9.30;;
49131;SDS011;35149;51.196;6.204;2022-12-08T16:53:57;16.17;;;10.27;;
49131;SDS011;35149;51.196;6.204;2022-12-08T16:56:25;13.85;;;10.60;;
49131;SDS011;35149;51.196;6.204;2022-12-08T16:58:58;16.05;;;11.75;;
49131;SDS011;35149;51.196;6.204;2022-12-08T17:01:30;13.38;;;10.57;;
49131;SDS011;35149;51.196;6.204;2022-12-08T17:03:57;14.95;;;10.55;;
49131;SDS011;35149;51.196;6.204;2022-12-08T17:06:48;13.90;;;9.50;;
49131;SDS011;35149;51.196;6.204;2022-12-08T17:09:17;13.07;;;9.52;;